Sarasota Bradenton International Airport
KSRQ : now visible

Airfield :











YOU CAN JOIN US ON...

 
LOGIN :

Register | Disclaimer

   EN    FR    IT 

 









Legend :    VFR   Marginal VFR   IFR   Intensive IFR   Very Intensive IFR
Visi :
Ceiling :
>= 8 km
>= 3000ft
5 to 8 km
1000 to 3000 ft
1500m to 5 km
500 to 1000 ft
800 to 1500m
200 to 500 ft
< 800m
< 200 ft
Symbols :   Thunderstorms  Fog  Heavy snow  Heavy precipitations  Wind > 20 kt






- Airport Elevation : 30 ft
- IATA code : SRQ


KSRQ - Sarasota Bradenton International

CURRENT METAR :
  • 161153Z 11006KT 10SM CLR 17/16 A3012 RMK AO2 SLP197 T01720156 10183 20161 53003

EXPIRED METARs :
  • 161053Z AUTO 11006KT 10SM CLR 16/15 A3011 RMK AO2 SLP194 T01610150
  • 160953Z AUTO 10006KT 10SM CLR 17/15 A3010 RMK AO2 SLP191 T01670150

TAF KSRQ
Valid from the 16 at 12:00 until the 17 at 12:00 UTC


161140Z 1612/1712 11006KT P6SM SKC
FM161500 14011KT P6SM FEW030 SCT250
FM162000 19009KT P6SM FEW030 SCT250
FM170100 13004KT P6SM SCT030 SCT250
FM171000 VRB03KT 6SM BR FEW030 SCT250



MET'MAP, your aeronautical weather chart ! - Copyright ORBIFLY December 2007 - Disclaimer

ORBIFLY MET'MAP TEAM :

Programming & Development : Alexandra Zaïnal
Concept & original design : Baudouin d'Aumeries
Assistance for programming : Marc-Olivier Méhu
Technical & hardware support : Manuel Goepfert

Contact : metmap@orbifly.com




SOURCES & CREDITS :

   NOAA       Earth
Advisory